createdAt,value
2018-05-07T00:02:38.626Z,12.7
2018-05-07T00:08:08.867Z,12.7
2018-05-07T00:13:37.796Z,12.6
2018-05-07T00:19:07.012Z,12.6
2018-05-07T00:24:37.098Z,12.6
2018-05-07T00:30:07.532Z,12.5
2018-05-07T00:35:36.241Z,12.5
2018-05-07T00:41:06.397Z,12.4
2018-05-07T00:46:36.477Z,12.4
2018-05-07T00:52:05.612Z,12.3
2018-05-07T00:57:34.690Z,12.3
2018-05-07T01:03:03.743Z,12.3
2018-05-07T01:08:33.863Z,12.2
2018-05-07T01:14:02.942Z,12.2
2018-05-07T01:19:32.999Z,12.1
2018-05-07T01:25:02.290Z,12.1
2018-05-07T01:30:31.226Z,12
2018-05-07T01:36:01.551Z,12
2018-05-07T01:41:31.349Z,11.9
2018-05-07T01:47:01.361Z,11.9
2018-05-07T01:52:31.397Z,11.9
2018-05-07T01:58:00.444Z,11.8
2018-05-07T02:03:30.488Z,11.8
2018-05-07T02:09:00.592Z,11.7
2018-05-07T02:14:29.534Z,11.7
2018-05-07T02:19:58.617Z,11.6
2018-05-07T02:25:27.595Z,11.5
2018-05-07T02:30:57.637Z,11.5
2018-05-07T02:36:26.647Z,11.5
2018-05-07T02:41:55.623Z,11.4
2018-05-07T02:47:24.633Z,11.4
2018-05-07T02:52:54.628Z,11.3
2018-05-07T02:58:23.645Z,11.3
2018-05-07T03:03:52.799Z,11.3
2018-05-07T03:09:22.593Z,11.2
2018-05-07T03:14:52.603Z,11.2
2018-05-07T03:20:21.613Z,11.2
2018-05-07T03:25:50.585Z,11.1
2018-05-07T03:31:20.585Z,11.1
2018-05-07T03:36:50.581Z,11.1
2018-05-07T03:42:20.723Z,11.1
2018-05-07T03:47:49.477Z,11.1
2018-05-07T03:53:19.419Z,11
2018-05-07T03:58:49.399Z,11.1
2018-05-07T04:04:18.453Z,11.1
2018-05-07T04:09:47.348Z,11
2018-05-07T04:15:17.531Z,11.1
2018-05-07T04:20:47.307Z,11.1
2018-05-07T04:26:16.295Z,11.1
2018-05-07T04:31:46.338Z,11.2
2018-05-07T04:37:16.292Z,11.2
2018-05-07T04:42:46.667Z,11.3
2018-05-07T04:48:16.219Z,11.4
2018-05-07T04:53:46.231Z,11.5
2018-05-07T04:59:16.333Z,11.6
2018-05-07T05:04:45.304Z,11.7
2018-05-07T05:10:15.285Z,11.8
2018-05-07T05:15:44.339Z,11.9
2018-05-07T05:21:13.410Z,12
2018-05-07T05:26:42.548Z,12.1
2018-05-07T05:32:11.636Z,12.2
2018-05-07T05:37:41.586Z,12.3
2018-05-07T05:43:10.602Z,12.4
2018-05-07T05:48:39.700Z,12.6
2018-05-07T05:54:08.802Z,12.8
2018-05-07T05:59:38.905Z,12.9
2018-05-07T06:05:08.237Z,13.2
2018-05-07T06:10:38.368Z,13.4
2018-05-07T06:16:07.622Z,13.6
2018-05-07T06:21:36.628Z,13.8
2018-05-07T06:27:06.879Z,14
2018-05-07T06:32:37.057Z,14.2
2018-05-07T06:38:06.287Z,14.4
2018-05-07T06:43:36.613Z,14.6
2018-05-07T06:49:06.920Z,14.8
2018-05-07T06:54:36.352Z,15
2018-05-07T07:00:06.556Z,15.2
2018-05-07T07:05:36.201Z,15.4
2018-05-07T07:11:06.269Z,15.6
2018-05-07T07:16:36.637Z,15.8
2018-05-07T07:22:06.053Z,16
2018-05-07T07:27:36.645Z,16.2
2018-05-07T07:33:05.951Z,16.3
2018-05-07T07:38:35.406Z,16.5
2018-05-07T07:44:04.920Z,16.6
2018-05-07T07:49:35.364Z,16.8
2018-05-07T07:55:04.846Z,17
2018-05-07T08:00:35.414Z,17.2
2018-05-07T08:06:05.058Z,17.4
2018-05-07T08:11:35.671Z,17.6
2018-05-07T08:17:05.259Z,17.7
2018-05-07T08:22:36.109Z,17.9
2018-05-07T08:28:05.667Z,18
2018-05-07T08:33:36.250Z,18.1
2018-05-07T08:39:05.969Z,18.1
2018-05-07T08:44:35.593Z,18.2
2018-05-07T08:50:06.443Z,18.4
2018-05-07T08:55:36.956Z,18.5
2018-05-07T09:01:06.757Z,18.6
2018-05-07T09:06:37.563Z,18.8
2018-05-07T09:12:08.411Z,18.9
2018-05-07T09:17:37.953Z,19
2018-05-07T09:23:08.640Z,19.2
2018-05-07T09:28:38.538Z,19.4
2018-05-07T09:34:09.190Z,19.5
2018-05-07T09:39:40.133Z,19.6
2018-05-07T09:45:10.588Z,19.7
2018-05-07T09:50:40.835Z,19.8
2018-05-07T09:56:10.399Z,19.9
2018-05-07T10:01:41.222Z,20
2018-05-07T10:07:12.627Z,20.1
2018-05-07T10:12:42.248Z,20.1
2018-05-07T10:23:42.592Z,20.3
2018-05-07T10:29:12.512Z,20.4
2018-05-07T10:34:43.390Z,20.5
2018-05-07T10:40:13.578Z,20.6
2018-05-07T10:45:44.288Z,20.7
2018-05-07T10:51:15.278Z,20.8
2018-05-07T10:56:46.333Z,20.8
2018-05-07T11:02:16.057Z,20.9
2018-05-07T11:07:46.201Z,21
2018-05-07T11:13:15.938Z,21.1
2018-05-07T11:18:46.885Z,21.2
2018-05-07T11:24:16.886Z,21.3
2018-05-07T11:29:46.843Z,21.4
2018-05-07T11:35:16.928Z,21.5
2018-05-07T11:40:48.232Z,21.6
2018-05-07T11:46:18.008Z,21.7
2018-05-07T11:51:48.218Z,21.8
2018-05-07T11:57:18.060Z,21.9
2018-05-07T12:02:49.131Z,21.9
2018-05-07T12:08:20.353Z,21.9
2018-05-07T12:13:50.294Z,22
2018-05-07T12:19:21.289Z,22.1
2018-05-07T12:24:52.536Z,22.2
2018-05-07T12:30:22.620Z,22.3
2018-05-07T12:35:52.537Z,22.4
2018-05-07T12:41:22.801Z,22.4
2018-05-07T12:46:53.921Z,22.4
2018-05-07T12:52:24.275Z,22.5
2018-05-07T12:57:54.431Z,22.5
2018-05-07T13:03:24.216Z,22.5
2018-05-07T13:08:55.497Z,22.5
2018-05-07T13:14:26.522Z,22.5
2018-05-07T13:19:56.596Z,22.6
2018-05-07T13:25:27.764Z,22.5
2018-05-07T13:30:57.890Z,22.5
2018-05-07T13:36:29.082Z,22.4
2018-05-07T13:42:00.235Z,22.4
2018-05-07T13:47:31.467Z,22.3
2018-05-07T13:53:03.033Z,22.2
2018-05-07T13:58:33.609Z,22.2
2018-05-07T14:04:04.722Z,22.2
2018-05-07T14:09:34.741Z,22.3
2018-05-07T14:15:05.999Z,22.4
2018-05-07T14:20:36.070Z,22.5
2018-05-07T14:26:07.369Z,22.5
2018-05-07T14:31:37.363Z,22.4
2018-05-07T14:37:08.842Z,22.5
2018-05-07T14:42:38.627Z,22.5
2018-05-07T14:48:08.727Z,22.5
2018-05-07T14:53:39.886Z,22.4
2018-05-07T14:59:09.965Z,22.2
2018-05-07T15:04:41.233Z,22.1
2018-05-07T15:10:12.215Z,22
2018-05-07T15:15:43.309Z,21.9
2018-05-07T15:21:14.444Z,21.9
2018-05-07T15:26:44.542Z,21.9
2018-05-07T15:32:14.433Z,21.9
2018-05-07T15:37:44.520Z,21.8
2018-05-07T15:43:15.752Z,21.9
2018-05-07T15:48:45.717Z,21.9
2018-05-07T15:54:16.704Z,21.9
2018-05-07T15:59:47.853Z,21.8
2018-05-07T16:05:18.349Z,21.7
2018-05-07T16:10:49.037Z,21.6
2018-05-07T16:16:18.986Z,21.5
2018-05-07T16:21:50.374Z,21.5
2018-05-07T16:27:21.152Z,21.6
2018-05-07T16:32:52.113Z,21.5
2018-05-07T16:38:22.364Z,21.5
2018-05-07T16:43:52.266Z,21.4
2018-05-07T16:49:22.247Z,21.4
2018-05-07T16:54:53.145Z,21.3
2018-05-07T17:00:24.171Z,21.2
2018-05-07T17:05:55.245Z,21
2018-05-07T17:11:25.287Z,20.8
2018-05-07T17:16:56.114Z,20.5
2018-05-07T17:22:26.999Z,20.3
2018-05-07T17:27:58.029Z,20.1
2018-05-07T17:33:27.822Z,19.9
2018-05-07T17:38:58.695Z,19.8
2018-05-07T17:44:28.527Z,19.6
2018-05-07T17:49:58.308Z,19.5
2018-05-07T17:55:28.076Z,19.3
2018-05-07T18:00:58.077Z,19.1
2018-05-07T18:06:27.595Z,19
2018-05-07T18:11:58.469Z,18.8
2018-05-07T18:17:29.146Z,18.6
2018-05-07T18:22:58.995Z,18.5
2018-05-07T18:28:28.516Z,18.4
2018-05-07T18:33:58.365Z,18.2
2018-05-07T18:39:27.945Z,18.1
2018-05-07T18:44:57.935Z,18
2018-05-07T18:50:28.488Z,17.8
2018-05-07T18:55:58.020Z,17.7
2018-05-07T19:01:28.725Z,17.5
2018-05-07T19:06:59.367Z,17.4
2018-05-07T19:12:30.074Z,17.2
2018-05-07T19:17:59.612Z,17.1
2018-05-07T19:23:29.178Z,16.9
2018-05-07T19:28:58.785Z,16.8
2018-05-07T19:34:28.408Z,16.7
2018-05-07T19:39:58.958Z,16.6
2018-05-07T19:45:28.590Z,16.6
2018-05-07T19:50:58.058Z,16.5
2018-05-07T19:56:28.572Z,16.4
2018-05-07T20:01:57.982Z,16.3
2018-05-07T20:12:57.980Z,16
2018-05-07T20:18:28.434Z,15.9
2018-05-07T20:23:58.044Z,15.8
2018-05-07T20:29:27.309Z,15.7
2018-05-07T20:34:56.848Z,15.6
2018-05-07T20:40:26.204Z,15.5
2018-05-07T20:45:55.519Z,15.4
2018-05-07T20:51:24.961Z,15.4
2018-05-07T20:56:55.317Z,15.3
2018-05-07T21:02:24.665Z,15.2
2018-05-07T21:07:55.027Z,15.1
2018-05-07T21:13:24.418Z,15.1
2018-05-07T21:18:53.830Z,15
2018-05-07T21:24:24.150Z,14.9
2018-05-07T21:29:54.485Z,14.9
2018-05-07T21:35:23.810Z,14.9
2018-05-07T21:40:53.127Z,14.8
2018-05-07T21:46:22.542Z,14.8
2018-05-07T21:51:51.932Z,14.7
2018-05-07T21:57:21.154Z,14.6
2018-05-07T22:02:50.665Z,14.6
2018-05-07T22:08:20.851Z,14.5
2018-05-07T22:13:50.183Z,14.5
2018-05-07T22:19:19.462Z,14.4
2018-05-07T22:24:49.659Z,14.4
2018-05-07T22:30:20.139Z,14.3
2018-05-07T22:35:49.298Z,14.3
2018-05-07T22:41:19.459Z,14.2
2018-05-07T22:46:48.781Z,14.1
2018-05-07T22:52:18.245Z,14.1
2018-05-07T22:57:47.265Z,14
2018-05-07T23:03:17.602Z,14
2018-05-07T23:08:46.762Z,13.9
2018-05-07T23:14:16.980Z,13.9
2018-05-07T23:25:15.613Z,13.9
2018-05-07T23:30:44.725Z,13.9
2018-05-07T23:36:15.018Z,13.9
2018-05-07T23:41:44.402Z,14
2018-05-07T23:47:13.480Z,14.1
2018-05-07T23:52:43.828Z,14.1
2018-05-07T23:58:14.043Z,14
